sensor_id;sensor_type;location;lat;lon;timestamp;temperature;humidity
56512;DHT22;42408;53.238;5.686;2022-11-20T00:01:39;2.40;99.90
56512;DHT22;42408;53.238;5.686;2022-11-20T00:04:05;2.40;99.90
56512;DHT22;42408;53.238;5.686;2022-11-20T00:06:31;2.40;99.90
56512;DHT22;42408;53.238;5.686;2022-11-20T00:08:58;2.40;99.90
56512;DHT22;42408;53.238;5.686;2022-11-20T00:11:26;2.50;99.90
56512;DHT22;42408;53.238;5.686;2022-11-20T00:13:55;2.40;99.90
56512;DHT22;42408;53.238;5.686;2022-11-20T00:16:23;2.30;99.90
56512;DHT22;42408;53.238;5.686;2022-11-20T00:18:50;2.40;99.90
56512;DHT22;42408;53.238;5.686;2022-11-20T00:21:21;2.30;99.90
56512;DHT22;42408;53.238;5.686;2022-11-20T00:23:48;2.40;99.90
56512;DHT22;42408;53.238;5.686;2022-11-20T00:26:16;2.30;99.90
56512;DHT22;42408;53.238;5.686;2022-11-20T00:28:43;2.30;99.90
56512;DHT22;42408;53.238;5.686;2022-11-20T00:31:14;2.20;99.90
56512;DHT22;42408;53.238;5.686;2022-11-20T00:33:41;2.20;99.90
56512;DHT22;42408;53.238;5.686;2022-11-20T00:36:11;2.20;99.90
56512;DHT22;42408;53.238;5.686;2022-11-20T00:38:37;2.10;99.90
56512;DHT22;42408;53.238;5.686;2022-11-20T00:41:08;2.10;99.90
56512;DHT22;42408;53.238;5.686;2022-11-20T00:43:34;2.00;99.90
56512;DHT22;42408;53.238;5.686;2022-11-20T00:46:14;2.00;99.90
56512;DHT22;42408;53.238;5.686;2022-11-20T00:48:40;2.00;99.90
56512;DHT22;42408;53.238;5.686;2022-11-20T00:51:06;1.90;99.90
56512;DHT22;42408;53.238;5.686;2022-11-20T00:53:31;1.90;99.90
56512;DHT22;42408;53.238;5.686;2022-11-20T00:56:03;1.80;99.90
56512;DHT22;42408;53.238;5.686;2022-11-20T00:58:31;1.80;99.90
56512;DHT22;42408;53.238;5.686;2022-11-20T01:01:14;1.80;99.90
56512;DHT22;42408;53.238;5.686;2022-11-20T01:03:42;1.70;99.90
56512;DHT22;42408;53.238;5.686;2022-11-20T01:06:20;1.70;99.90
56512;DHT22;42408;53.238;5.686;2022-11-20T01:08:46;1.70;99.90
56512;DHT22;42408;53.238;5.686;2022-11-20T01:11:14;1.60;99.90
56512;DHT22;42408;53.238;5.686;2022-11-20T01:13:41;1.60;99.90
56512;DHT22;42408;53.238;5.686;2022-11-20T01:16:11;1.60;99.90
56512;DHT22;42408;53.238;5.686;2022-11-20T01:18:39;1.60;99.90
56512;DHT22;42408;53.238;5.686;2022-11-20T01:21:07;1.70;99.90
56512;DHT22;42408;53.238;5.686;2022-11-20T01:23:37;1.70;99.90
56512;DHT22;42408;53.238;5.686;2022-11-20T01:26:09;2.20;99.90
56512;DHT22;42408;53.238;5.686;2022-11-20T01:28:34;1.70;99.90
56512;DHT22;42408;53.238;5.686;2022-11-20T01:31:01;1.80;99.90
56512;DHT22;42408;53.238;5.686;2022-11-20T01:33:27;1.80;99.90
56512;DHT22;42408;53.238;5.686;2022-11-20T01:35:53;1.80;99.90
56512;DHT22;42408;53.238;5.686;2022-11-20T01:38:27;1.80;99.90
56512;DHT22;42408;53.238;5.686;2022-11-20T01:40:55;1.80;99.90
56512;DHT22;42408;53.238;5.686;2022-11-20T01:43:21;1.80;99.90
56512;DHT22;42408;53.238;5.686;2022-11-20T01:48:20;1.80;99.90
56512;DHT22;42408;53.238;5.686;2022-11-20T01:50:48;1.80;99.90
56512;DHT22;42408;53.238;5.686;2022-11-20T01:53:17;1.80;99.90
56512;DHT22;42408;53.238;5.686;2022-11-20T01:55:50;1.80;99.90
56512;DHT22;42408;53.238;5.686;2022-11-20T01:58:20;2.50;99.90
56512;DHT22;42408;53.238;5.686;2022-11-20T02:00:46;1.80;99.90
56512;DHT22;42408;53.238;5.686;2022-11-20T02:03:14;1.80;99.90
56512;DHT22;42408;53.238;5.686;2022-11-20T02:05:51;1.80;99.90
56512;DHT22;42408;53.238;5.686;2022-11-20T02:08:21;1.80;99.90
56512;DHT22;42408;53.238;5.686;2022-11-20T02:10:47;1.80;99.90
56512;DHT22;42408;53.238;5.686;2022-11-20T02:13:12;1.70;99.90
56512;DHT22;42408;53.238;5.686;2022-11-20T02:15:57;1.80;99.90
56512;DHT22;42408;53.238;5.686;2022-11-20T02:18:23;1.80;99.90
56512;DHT22;42408;53.238;5.686;2022-11-20T02:20:53;1.80;99.90
56512;DHT22;42408;53.238;5.686;2022-11-20T02:26:22;1.70;99.90
56512;DHT22;42408;53.238;5.686;2022-11-20T02:28:48;1.70;99.90
56512;DHT22;42408;53.238;5.686;2022-11-20T02:31:14;1.70;99.90
56512;DHT22;42408;53.238;5.686;2022-11-20T02:33:40;1.70;99.90
56512;DHT22;42408;53.238;5.686;2022-11-20T02:36:09;1.70;99.90
56512;DHT22;42408;53.238;5.686;2022-11-20T02:38:36;1.80;99.90
56512;DHT22;42408;53.238;5.686;2022-11-20T02:41:02;1.80;99.90
56512;DHT22;42408;53.238;5.686;2022-11-20T02:43:28;1.80;99.90
56512;DHT22;42408;53.238;5.686;2022-11-20T02:45:54;1.80;99.90
56512;DHT22;42408;53.238;5.686;2022-11-20T02:48:19;1.90;99.90
56512;DHT22;42408;53.238;5.686;2022-11-20T02:50:45;1.80;99.90
56512;DHT22;42408;53.238;5.686;2022-11-20T02:53:10;1.80;99.90
56512;DHT22;42408;53.238;5.686;2022-11-20T02:55:36;1.80;99.90
56512;DHT22;42408;53.238;5.686;2022-11-20T02:58:02;1.80;99.90
56512;DHT22;42408;53.238;5.686;2022-11-20T03:00:28;1.70;99.90
56512;DHT22;42408;53.238;5.686;2022-11-20T03:02:53;1.80;99.90
56512;DHT22;42408;53.238;5.686;2022-11-20T03:05:19;1.70;99.90
56512;DHT22;42408;53.238;5.686;2022-11-20T03:07:45;1.80;99.90
56512;DHT22;42408;53.238;5.686;2022-11-20T03:10:10;1.80;99.90
56512;DHT22;42408;53.238;5.686;2022-11-20T03:12:36;1.70;99.90
56512;DHT22;42408;53.238;5.686;2022-11-20T03:15:02;1.80;99.90
56512;DHT22;42408;53.238;5.686;2022-11-20T03:17:27;1.80;99.90
56512;DHT22;42408;53.238;5.686;2022-11-20T03:19:54;1.80;99.90
56512;DHT22;42408;53.238;5.686;2022-11-20T03:22:20;1.80;99.90
56512;DHT22;42408;53.238;5.686;2022-11-20T03:24:45;1.80;99.90
56512;DHT22;42408;53.238;5.686;2022-11-20T03:27:11;1.70;99.90
56512;DHT22;42408;53.238;5.686;2022-11-20T03:29:37;1.80;99.90
56512;DHT22;42408;53.238;5.686;2022-11-20T03:32:02;1.70;99.90
56512;DHT22;42408;53.238;5.686;2022-11-20T03:34:28;1.70;99.90
56512;DHT22;42408;53.238;5.686;2022-11-20T03:36:54;1.70;99.90
56512;DHT22;42408;53.238;5.686;2022-11-20T03:39:19;1.70;99.90
56512;DHT22;42408;53.238;5.686;2022-11-20T03:41:45;1.70;99.90
56512;DHT22;42408;53.238;5.686;2022-11-20T03:44:11;1.70;99.90
56512;DHT22;42408;53.238;5.686;2022-11-20T03:46:37;1.70;99.90
56512;DHT22;42408;53.238;5.686;2022-11-20T03:49:03;1.60;99.90
56512;DHT22;42408;53.238;5.686;2022-11-20T03:51:31;1.60;99.90
56512;DHT22;42408;53.238;5.686;2022-11-20T03:53:59;1.50;99.90
56512;DHT22;42408;53.238;5.686;2022-11-20T03:56:30;1.60;99.90
56512;DHT22;42408;53.238;5.686;2022-11-20T03:58:57;1.60;99.90
56512;DHT22;42408;53.238;5.686;2022-11-20T04:01:26;1.60;99.90
56512;DHT22;42408;53.238;5.686;2022-11-20T04:03:53;1.50;99.90
56512;DHT22;42408;53.238;5.686;2022-11-20T04:06:27;1.50;99.90
56512;DHT22;42408;53.238;5.686;2022-11-20T04:08:57;1.50;99.90
56512;DHT22;42408;53.238;5.686;2022-11-20T04:11:26;1.50;99.90
56512;DHT22;42408;53.238;5.686;2022-11-20T04:13:57;1.40;99.90
56512;DHT22;42408;53.238;5.686;2022-11-20T04:16:25;1.40;99.90
56512;DHT22;42408;53.238;5.686;2022-11-20T04:18:55;1.40;99.90
56512;DHT22;42408;53.238;5.686;2022-11-20T04:21:21;1.40;99.90
56512;DHT22;42408;53.238;5.686;2022-11-20T04:23:48;1.40;99.90
56512;DHT22;42408;53.238;5.686;2022-11-20T04:26:13;1.30;99.90
56512;DHT22;42408;53.238;5.686;2022-11-20T04:28:39;1.30;99.90
56512;DHT22;42408;53.238;5.686;2022-11-20T04:31:11;1.30;99.90
56512;DHT22;42408;53.238;5.686;2022-11-20T04:33:37;1.20;99.90
56512;DHT22;42408;53.238;5.686;2022-11-20T04:36:11;1.20;99.90
56512;DHT22;42408;53.238;5.686;2022-11-20T04:38:37;1.10;99.90
56512;DHT22;42408;53.238;5.686;2022-11-20T04:41:05;1.10;99.90
56512;DHT22;42408;53.238;5.686;2022-11-20T04:43:32;1.00;99.90
56512;DHT22;42408;53.238;5.686;2022-11-20T04:45:58;1.00;99.90
56512;DHT22;42408;53.238;5.686;2022-11-20T04:48:25;1.00;99.90
56512;DHT22;42408;53.238;5.686;2022-11-20T04:50:51;1.00;99.90
56512;DHT22;42408;53.238;5.686;2022-11-20T04:53:18;1.00;99.90
56512;DHT22;42408;53.238;5.686;2022-11-20T04:55:44;1.00;99.90
56512;DHT22;42408;53.238;5.686;2022-11-20T04:58:09;1.00;99.90
56512;DHT22;42408;53.238;5.686;2022-11-20T05:00:35;1.00;99.90
56512;DHT22;42408;53.238;5.686;2022-11-20T05:03:01;0.90;99.90
56512;DHT22;42408;53.238;5.686;2022-11-20T05:05:26;0.90;99.90
56512;DHT22;42408;53.238;5.686;2022-11-20T05:07:52;0.80;99.90
56512;DHT22;42408;53.238;5.686;2022-11-20T05:10:17;0.80;99.90
56512;DHT22;42408;53.238;5.686;2022-11-20T05:12:43;0.80;99.90
56512;DHT22;42408;53.238;5.686;2022-11-20T05:15:09;0.70;99.90
56512;DHT22;42408;53.238;5.686;2022-11-20T05:17:35;0.70;99.90
56512;DHT22;42408;53.238;5.686;2022-11-20T05:20:00;0.70;99.90
56512;DHT22;42408;53.238;5.686;2022-11-20T05:22:26;0.70;99.90
56512;DHT22;42408;53.238;5.686;2022-11-20T05:24:52;0.70;99.90
56512;DHT22;42408;53.238;5.686;2022-11-20T05:27:17;0.60;99.90
56512;DHT22;42408;53.238;5.686;2022-11-20T05:29:43;0.60;99.90
56512;DHT22;42408;53.238;5.686;2022-11-20T05:32:08;0.60;99.90
56512;DHT22;42408;53.238;5.686;2022-11-20T05:34:35;0.50;99.90
56512;DHT22;42408;53.238;5.686;2022-11-20T05:37:02;0.50;99.90
56512;DHT22;42408;53.238;5.686;2022-11-20T05:39:28;0.40;99.90
56512;DHT22;42408;53.238;5.686;2022-11-20T05:41:53;0.40;99.90
56512;DHT22;42408;53.238;5.686;2022-11-20T05:44:37;0.50;99.90
56512;DHT22;42408;53.238;5.686;2022-11-20T05:47:03;0.40;99.90
56512;DHT22;42408;53.238;5.686;2022-11-20T05:49:29;0.50;99.90
56512;DHT22;42408;53.238;5.686;2022-11-20T05:51:54;0.50;99.90
56512;DHT22;42408;53.238;5.686;2022-11-20T05:54:20;0.40;99.90
56512;DHT22;42408;53.238;5.686;2022-11-20T05:56:45;0.40;99.90
56512;DHT22;42408;53.238;5.686;2022-11-20T05:59:11;0.40;99.90
56512;DHT22;42408;53.238;5.686;2022-11-20T06:01:37;0.40;99.90
56512;DHT22;42408;53.238;5.686;2022-11-20T06:04:03;0.40;99.90
56512;DHT22;42408;53.238;5.686;2022-11-20T06:06:28;0.40;99.90
56512;DHT22;42408;53.238;5.686;2022-11-20T06:08:55;0.40;99.90
56512;DHT22;42408;53.238;5.686;2022-11-20T06:11:21;0.40;99.90
56512;DHT22;42408;53.238;5.686;2022-11-20T06:13:48;0.50;99.90
56512;DHT22;42408;53.238;5.686;2022-11-20T06:16:15;0.40;99.90
56512;DHT22;42408;53.238;5.686;2022-11-20T06:18:41;0.40;99.90
56512;DHT22;42408;53.238;5.686;2022-11-20T06:21:10;0.50;99.90
56512;DHT22;42408;53.238;5.686;2022-11-20T06:23:36;0.50;99.90
56512;DHT22;42408;53.238;5.686;2022-11-20T06:26:03;0.50;99.90
56512;DHT22;42408;53.238;5.686;2022-11-20T06:28:29;0.50;99.90
56512;DHT22;42408;53.238;5.686;2022-11-20T06:30:55;0.50;99.90
56512;DHT22;42408;53.238;5.686;2022-11-20T06:33:21;0.50;99.90
56512;DHT22;42408;53.238;5.686;2022-11-20T06:35:46;0.50;99.90
56512;DHT22;42408;53.238;5.686;2022-11-20T06:38:12;0.50;99.90
56512;DHT22;42408;53.238;5.686;2022-11-20T06:40:43;0.50;99.90
56512;DHT22;42408;53.238;5.686;2022-11-20T06:43:09;0.50;99.90
56512;DHT22;42408;53.238;5.686;2022-11-20T06:45:36;0.60;99.90
56512;DHT22;42408;53.238;5.686;2022-11-20T06:48:02;0.60;99.90
56512;DHT22;42408;53.238;5.686;2022-11-20T06:50:27;0.60;99.90
56512;DHT22;42408;53.238;5.686;2022-11-20T06:52:53;0.70;99.90
56512;DHT22;42408;53.238;5.686;2022-11-20T06:55:18;0.70;99.90
56512;DHT22;42408;53.238;5.686;2022-11-20T06:57:44;0.70;99.90
56512;DHT22;42408;53.238;5.686;2022-11-20T07:00:10;0.70;99.90
56512;DHT22;42408;53.238;5.686;2022-11-20T07:02:36;0.70;99.90
56512;DHT22;42408;53.238;5.686;2022-11-20T07:05:02;0.60;99.90
56512;DHT22;42408;53.238;5.686;2022-11-20T07:07:27;0.70;99.90
56512;DHT22;42408;53.238;5.686;2022-11-20T07:09:53;0.60;99.90
56512;DHT22;42408;53.238;5.686;2022-11-20T07:12:19;0.60;99.90
56512;DHT22;42408;53.238;5.686;2022-11-20T07:14:44;0.60;99.90
56512;DHT22;42408;53.238;5.686;2022-11-20T07:17:10;0.60;99.90
56512;DHT22;42408;53.238;5.686;2022-11-20T07:19:36;0.60;99.90
56512;DHT22;42408;53.238;5.686;2022-11-20T07:22:02;0.60;99.90
56512;DHT22;42408;53.238;5.686;2022-11-20T07:24:27;0.60;99.90
56512;DHT22;42408;53.238;5.686;2022-11-20T07:26:53;0.50;99.90
56512;DHT22;42408;53.238;5.686;2022-11-20T07:29:18;0.50;99.90
56512;DHT22;42408;53.238;5.686;2022-11-20T07:31:44;0.50;99.90
56512;DHT22;42408;53.238;5.686;2022-11-20T07:34:10;0.50;99.90
56512;DHT22;42408;53.238;5.686;2022-11-20T07:36:35;0.50;99.90
56512;DHT22;42408;53.238;5.686;2022-11-20T07:39:01;0.50;99.90
56512;DHT22;42408;53.238;5.686;2022-11-20T07:41:26;0.50;99.90
56512;DHT22;42408;53.238;5.686;2022-11-20T07:43:53;0.50;99.90
56512;DHT22;42408;53.238;5.686;2022-11-20T07:46:18;0.50;99.90
56512;DHT22;42408;53.238;5.686;2022-11-20T07:48:44;0.50;99.90
56512;DHT22;42408;53.238;5.686;2022-11-20T07:51:09;0.50;99.90
56512;DHT22;42408;53.238;5.686;2022-11-20T07:53:35;0.50;99.90
56512;DHT22;42408;53.238;5.686;2022-11-20T07:56:02;0.50;99.90
56512;DHT22;42408;53.238;5.686;2022-11-20T07:58:31;0.40;99.90
56512;DHT22;42408;53.238;5.686;2022-11-20T08:01:07;0.40;99.90
56512;DHT22;42408;53.238;5.686;2022-11-20T08:03:33;0.40;99.90
56512;DHT22;42408;53.238;5.686;2022-11-20T08:06:00;0.50;99.90
56512;DHT22;42408;53.238;5.686;2022-11-20T08:08:27;0.40;99.90
56512;DHT22;42408;53.238;5.686;2022-11-20T08:10:52;0.40;99.90
56512;DHT22;42408;53.238;5.686;2022-11-20T08:13:38;0.40;99.90
56512;DHT22;42408;53.238;5.686;2022-11-20T08:16:22;0.50;99.90
56512;DHT22;42408;53.238;5.686;2022-11-20T08:18:47;0.50;99.90
56512;DHT22;42408;53.238;5.686;2022-11-20T08:21:13;0.50;99.90
56512;DHT22;42408;53.238;5.686;2022-11-20T08:23:39;0.60;99.90
56512;DHT22;42408;53.238;5.686;2022-11-20T08:26:04;0.50;99.90
56512;DHT22;42408;53.238;5.686;2022-11-20T08:28:30;0.50;99.90
56512;DHT22;42408;53.238;5.686;2022-11-20T08:31:00;0.60;99.90
56512;DHT22;42408;53.238;5.686;2022-11-20T08:33:26;0.60;99.90
56512;DHT22;42408;53.238;5.686;2022-11-20T08:35:51;0.60;99.90
56512;DHT22;42408;53.238;5.686;2022-11-20T08:38:17;0.60;99.90
56512;DHT22;42408;53.238;5.686;2022-11-20T08:40:43;0.70;99.90
56512;DHT22;42408;53.238;5.686;2022-11-20T08:43:28;0.70;99.90
56512;DHT22;42408;53.238;5.686;2022-11-20T08:45:56;0.70;99.90
56512;DHT22;42408;53.238;5.686;2022-11-20T08:48:22;0.80;99.90
56512;DHT22;42408;53.238;5.686;2022-11-20T08:50:47;0.90;99.90
56512;DHT22;42408;53.238;5.686;2022-11-20T08:53:13;0.90;99.90
56512;DHT22;42408;53.238;5.686;2022-11-20T08:55:39;1.00;99.90
56512;DHT22;42408;53.238;5.686;2022-11-20T08:58:05;1.10;99.90
56512;DHT22;42408;53.238;5.686;2022-11-20T09:00:31;1.20;99.90
56512;DHT22;42408;53.238;5.686;2022-11-20T09:02:57;1.40;99.90
56512;DHT22;42408;53.238;5.686;2022-11-20T09:05:24;1.40;99.90
56512;DHT22;42408;53.238;5.686;2022-11-20T09:07:49;1.40;99.90
56512;DHT22;42408;53.238;5.686;2022-11-20T09:10:15;1.50;99.90
56512;DHT22;42408;53.238;5.686;2022-11-20T09:12:41;1.50;99.90
56512;DHT22;42408;53.238;5.686;2022-11-20T09:15:07;1.50;99.90
56512;DHT22;42408;53.238;5.686;2022-11-20T09:17:32;1.60;99.90
56512;DHT22;42408;53.238;5.686;2022-11-20T09:19:58;1.60;99.90
56512;DHT22;42408;53.238;5.686;2022-11-20T09:22:24;1.80;99.90
56512;DHT22;42408;53.238;5.686;2022-11-20T09:24:49;1.80;99.90
56512;DHT22;42408;53.238;5.686;2022-11-20T09:27:15;1.90;99.90
56512;DHT22;42408;53.238;5.686;2022-11-20T09:29:46;2.00;99.90
56512;DHT22;42408;53.238;5.686;2022-11-20T09:32:11;2.00;99.90
56512;DHT22;42408;53.238;5.686;2022-11-20T09:34:37;2.10;99.90
56512;DHT22;42408;53.238;5.686;2022-11-20T09:37:03;2.10;99.90
56512;DHT22;42408;53.238;5.686;2022-11-20T09:39:28;2.20;99.90
56512;DHT22;42408;53.238;5.686;2022-11-20T09:42:16;2.30;99.90
56512;DHT22;42408;53.238;5.686;2022-11-20T09:44:54;2.30;99.90
56512;DHT22;42408;53.238;5.686;2022-11-20T09:55:52;2.60;99.90
56512;DHT22;42408;53.238;5.686;2022-11-20T09:58:40;2.70;99.90
56512;DHT22;42408;53.238;5.686;2022-11-20T10:01:15;2.80;99.90
56512;DHT22;42408;53.238;5.686;2022-11-20T10:03:56;2.90;99.90
56512;DHT22;42408;53.238;5.686;2022-11-20T10:06:32;2.90;99.90
56512;DHT22;42408;53.238;5.686;2022-11-20T10:09:17;3.00;99.90
56512;DHT22;42408;53.238;5.686;2022-11-20T10:23:19;3.30;99.90
56512;DHT22;42408;53.238;5.686;2022-11-20T10:25:38;3.30;99.90
56512;DHT22;42408;53.238;5.686;2022-11-20T10:31:10;3.40;99.90
56512;DHT22;42408;53.238;5.686;2022-11-20T10:33:41;3.50;99.90
56512;DHT22;42408;53.238;5.686;2022-11-20T10:38:57;3.60;99.90
56512;DHT22;42408;53.238;5.686;2022-11-20T10:41:40;3.60;99.90
56512;DHT22;42408;53.238;5.686;2022-11-20T10:44:26;3.60;99.90
56512;DHT22;42408;53.238;5.686;2022-11-20T10:47:16;3.60;99.90
56512;DHT22;42408;53.238;5.686;2022-11-20T10:49:46;3.60;99.90
56512;DHT22;42408;53.238;5.686;2022-11-20T11:00:46;3.60;99.90
56512;DHT22;42408;53.238;5.686;2022-11-20T11:03:25;3.60;99.90
56512;DHT22;42408;53.238;5.686;2022-11-20T11:06:02;3.60;99.90
56512;DHT22;42408;53.238;5.686;2022-11-20T11:08:35;3.70;99.90
56512;DHT22;42408;53.238;5.686;2022-11-20T11:11:23;3.50;99.90
56512;DHT22;42408;53.238;5.686;2022-11-20T11:13:50;3.60;99.90
56512;DHT22;42408;53.238;5.686;2022-11-20T11:16:24;3.60;99.90
56512;DHT22;42408;53.238;5.686;2022-11-20T11:18:51;3.60;99.90
56512;DHT22;42408;53.238;5.686;2022-11-20T11:21:26;3.60;99.90
56512;DHT22;42408;53.238;5.686;2022-11-20T11:24:03;3.60;99.90
56512;DHT22;42408;53.238;5.686;2022-11-20T11:26:29;3.70;99.90
56512;DHT22;42408;53.238;5.686;2022-11-20T11:29:03;3.60;99.90
56512;DHT22;42408;53.238;5.686;2022-11-20T11:31:33;3.70;99.90
56512;DHT22;42408;53.238;5.686;2022-11-20T11:34:13;3.70;99.90
56512;DHT22;42408;53.238;5.686;2022-11-20T11:36:40;3.80;99.90
56512;DHT22;42408;53.238;5.686;2022-11-20T11:39:14;3.80;99.90
56512;DHT22;42408;53.238;5.686;2022-11-20T11:41:41;3.90;99.90
56512;DHT22;42408;53.238;5.686;2022-11-20T11:44:19;4.00;99.90
56512;DHT22;42408;53.238;5.686;2022-11-20T11:47:04;4.00;99.90
56512;DHT22;42408;53.238;5.686;2022-11-20T11:49:31;4.00;99.90
56512;DHT22;42408;53.238;5.686;2022-11-20T11:57:01;4.00;99.90
56512;DHT22;42408;53.238;5.686;2022-11-20T11:59:44;4.00;99.90
56512;DHT22;42408;53.238;5.686;2022-11-20T12:02:27;4.00;99.90
56512;DHT22;42408;53.238;5.686;2022-11-20T12:04:59;4.00;99.90
56512;DHT22;42408;53.238;5.686;2022-11-20T12:10:48;4.00;99.90
56512;DHT22;42408;53.238;5.686;2022-11-20T12:16:04;4.00;99.90
56512;DHT22;42408;53.238;5.686;2022-11-20T12:18:31;4.00;99.90
56512;DHT22;42408;53.238;5.686;2022-11-20T12:21:01;4.00;99.90
56512;DHT22;42408;53.238;5.686;2022-11-20T12:37:38;3.80;99.90
56512;DHT22;42408;53.238;5.686;2022-11-20T12:51:54;3.70;99.90
56512;DHT22;42408;53.238;5.686;2022-11-20T12:57:58;3.70;99.90
56512;DHT22;42408;53.238;5.686;2022-11-20T13:00:26;3.70;99.90
56512;DHT22;42408;53.238;5.686;2022-11-20T13:08:22;3.60;99.90
56512;DHT22;42408;53.238;5.686;2022-11-20T13:10:56;3.60;99.90
56512;DHT22;42408;53.238;5.686;2022-11-20T13:13:40;3.60;99.90
56512;DHT22;42408;53.238;5.686;2022-11-20T13:19:08;3.50;99.90
56512;DHT22;42408;53.238;5.686;2022-11-20T13:21:42;3.60;99.90
56512;DHT22;42408;53.238;5.686;2022-11-20T13:24:23;3.60;99.90
56512;DHT22;42408;53.238;5.686;2022-11-20T13:29:29;4.60;99.90
56512;DHT22;42408;53.238;5.686;2022-11-20T13:32:12;3.40;99.90
56512;DHT22;42408;53.238;5.686;2022-11-20T13:34:38;3.40;99.90
56512;DHT22;42408;53.238;5.686;2022-11-20T13:37:04;4.40;99.90
56512;DHT22;42408;53.238;5.686;2022-11-20T13:39:35;3.40;99.90
56512;DHT22;42408;53.238;5.686;2022-11-20T13:42:15;3.30;99.90
56512;DHT22;42408;53.238;5.686;2022-11-20T13:44:54;3.40;99.90
56512;DHT22;42408;53.238;5.686;2022-11-20T13:47:25;3.30;99.90
56512;DHT22;42408;53.238;5.686;2022-11-20T13:49:52;3.40;99.90
56512;DHT22;42408;53.238;5.686;2022-11-20T13:57:40;3.40;99.90
56512;DHT22;42408;53.238;5.686;2022-11-20T14:00:20;3.40;99.90
56512;DHT22;42408;53.238;5.686;2022-11-20T14:05:25;3.30;99.90
56512;DHT22;42408;53.238;5.686;2022-11-20T14:07:52;3.30;99.90
56512;DHT22;42408;53.238;5.686;2022-11-20T14:10:26;3.90;99.90
56512;DHT22;42408;53.238;5.686;2022-11-20T14:12:52;3.20;99.90
56512;DHT22;42408;53.238;5.686;2022-11-20T14:17:50;3.20;99.90
56512;DHT22;42408;53.238;5.686;2022-11-20T14:20:16;3.20;99.90
56512;DHT22;42408;53.238;5.686;2022-11-20T14:22:49;3.30;99.90
56512;DHT22;42408;53.238;5.686;2022-11-20T14:25:18;3.20;99.90
56512;DHT22;42408;53.238;5.686;2022-11-20T14:27:55;3.20;99.90
56512;DHT22;42408;53.238;5.686;2022-11-20T14:30:36;3.20;99.90
56512;DHT22;42408;53.238;5.686;2022-11-20T14:33:04;3.20;99.90
56512;DHT22;42408;53.238;5.686;2022-11-20T14:35:34;3.20;99.90
56512;DHT22;42408;53.238;5.686;2022-11-20T14:38:01;3.20;99.90
56512;DHT22;42408;53.238;5.686;2022-11-20T14:40:35;3.20;99.90
56512;DHT22;42408;53.238;5.686;2022-11-20T14:43:04;3.20;99.90
56512;DHT22;42408;53.238;5.686;2022-11-20T14:45:41;3.20;99.90
56512;DHT22;42408;53.238;5.686;2022-11-20T14:48:09;3.20;99.90
56512;DHT22;42408;53.238;5.686;2022-11-20T14:50:38;3.10;99.90
56512;DHT22;42408;53.238;5.686;2022-11-20T14:53:04;3.20;99.90
56512;DHT22;42408;53.238;5.686;2022-11-20T14:55:32;3.20;99.90
56512;DHT22;42408;53.238;5.686;2022-11-20T14:58:04;4.00;99.90
56512;DHT22;42408;53.238;5.686;2022-11-20T15:00:31;3.10;99.90
56512;DHT22;42408;53.238;5.686;2022-11-20T15:02:57;3.10;99.90
56512;DHT22;42408;53.238;5.686;2022-11-20T15:05:44;3.10;99.90
56512;DHT22;42408;53.238;5.686;2022-11-20T15:08:10;3.00;99.90
56512;DHT22;42408;53.238;5.686;2022-11-20T15:10:36;3.10;99.90
56512;DHT22;42408;53.238;5.686;2022-11-20T15:13:05;3.00;99.90
56512;DHT22;42408;53.238;5.686;2022-11-20T15:18:13;3.00;99.90
56512;DHT22;42408;53.238;5.686;2022-11-20T15:20:41;3.00;99.90
56512;DHT22;42408;53.238;5.686;2022-11-20T15:23:12;3.00;99.90
56512;DHT22;42408;53.238;5.686;2022-11-20T15:25:39;3.00;99.90
56512;DHT22;42408;53.238;5.686;2022-11-20T15:28:21;3.00;99.90
56512;DHT22;42408;53.238;5.686;2022-11-20T15:30:48;3.00;99.90
56512;DHT22;42408;53.238;5.686;2022-11-20T15:33:14;3.00;99.90
56512;DHT22;42408;53.238;5.686;2022-11-20T15:35:40;3.00;99.90
56512;DHT22;42408;53.238;5.686;2022-11-20T15:38:06;3.00;99.90
56512;DHT22;42408;53.238;5.686;2022-11-20T15:40:32;3.00;99.90
56512;DHT22;42408;53.238;5.686;2022-11-20T15:42:57;3.00;99.90
56512;DHT22;42408;53.238;5.686;2022-11-20T15:45:38;3.00;99.90
56512;DHT22;42408;53.238;5.686;2022-11-20T15:48:05;3.00;99.90
56512;DHT22;42408;53.238;5.686;2022-11-20T15:50:44;3.00;99.90
56512;DHT22;42408;53.238;5.686;2022-11-20T15:53:12;3.00;99.90
56512;DHT22;42408;53.238;5.686;2022-11-20T15:55:37;3.00;99.90
56512;DHT22;42408;53.238;5.686;2022-11-20T15:58:03;3.00;99.90
56512;DHT22;42408;53.238;5.686;2022-11-20T16:00:28;3.00;99.90
56512;DHT22;42408;53.238;5.686;2022-11-20T16:02:54;3.10;99.90
56512;DHT22;42408;53.238;5.686;2022-11-20T16:05:20;3.00;99.90
56512;DHT22;42408;53.238;5.686;2022-11-20T16:07:48;3.10;99.90
56512;DHT22;42408;53.238;5.686;2022-11-20T16:10:15;3.00;99.90
56512;DHT22;42408;53.238;5.686;2022-11-20T16:12:40;3.00;99.90
56512;DHT22;42408;53.238;5.686;2022-11-20T16:15:25;3.10;99.90
56512;DHT22;42408;53.238;5.686;2022-11-20T16:18:11;3.00;99.90
56512;DHT22;42408;53.238;5.686;2022-11-20T16:20:37;3.00;99.90
56512;DHT22;42408;53.238;5.686;2022-11-20T16:23:03;3.00;99.90
56512;DHT22;42408;53.238;5.686;2022-11-20T16:25:28;3.00;99.90
56512;DHT22;42408;53.238;5.686;2022-11-20T16:27:54;3.00;99.90
56512;DHT22;42408;53.238;5.686;2022-11-20T16:30:20;3.00;99.90
56512;DHT22;42408;53.238;5.686;2022-11-20T16:32:45;3.00;99.90
56512;DHT22;42408;53.238;5.686;2022-11-20T16:35:11;3.00;99.90
56512;DHT22;42408;53.238;5.686;2022-11-20T16:37:36;4.10;99.90
56512;DHT22;42408;53.238;5.686;2022-11-20T16:40:03;3.00;99.90
56512;DHT22;42408;53.238;5.686;2022-11-20T16:42:33;2.90;99.90
56512;DHT22;42408;53.238;5.686;2022-11-20T16:44:59;3.00;99.90
56512;DHT22;42408;53.238;5.686;2022-11-20T16:47:24;2.90;99.90
56512;DHT22;42408;53.238;5.686;2022-11-20T16:49:50;2.90;99.90
56512;DHT22;42408;53.238;5.686;2022-11-20T16:52:16;2.90;99.90
56512;DHT22;42408;53.238;5.686;2022-11-20T16:54:41;2.90;99.90
56512;DHT22;42408;53.238;5.686;2022-11-20T16:57:07;2.90;99.90
56512;DHT22;42408;53.238;5.686;2022-11-20T16:59:32;2.90;99.90
56512;DHT22;42408;53.238;5.686;2022-11-20T17:01:58;2.90;99.90
56512;DHT22;42408;53.238;5.686;2022-11-20T17:04:24;2.90;99.90
56512;DHT22;42408;53.238;5.686;2022-11-20T17:06:49;2.80;99.90
56512;DHT22;42408;53.238;5.686;2022-11-20T17:09:16;2.90;99.90
56512;DHT22;42408;53.238;5.686;2022-11-20T17:11:41;2.80;99.90
56512;DHT22;42408;53.238;5.686;2022-11-20T17:14:09;2.80;99.90
56512;DHT22;42408;53.238;5.686;2022-11-20T17:16:35;2.80;99.90
56512;DHT22;42408;53.238;5.686;2022-11-20T17:19:02;2.80;99.90
56512;DHT22;42408;53.238;5.686;2022-11-20T17:21:30;2.80;99.90
56512;DHT22;42408;53.238;5.686;2022-11-20T17:24:00;2.80;99.90
56512;DHT22;42408;53.238;5.686;2022-11-20T17:26:26;2.80;99.90
56512;DHT22;42408;53.238;5.686;2022-11-20T17:29:18;2.80;99.90
56512;DHT22;42408;53.238;5.686;2022-11-20T17:31:45;2.80;99.90
56512;DHT22;42408;53.238;5.686;2022-11-20T17:34:14;2.80;99.90
56512;DHT22;42408;53.238;5.686;2022-11-20T17:36:40;2.80;99.90
56512;DHT22;42408;53.238;5.686;2022-11-20T17:39:10;2.80;99.90